Time;durP1;ratioP1;P1;durP2;ratioP2;P2;SDS_P1;SDS_P2;PMS_P1;PMS_P2;Temp;Humidity;BMP_temperature;BMP_pressure;BME280_temperature;BME280_humidity;BME280_pressure;Samples;Min_cycle;Max_cycle;Signal;HPM_P1;HPM_P2
2022/09/17 00:01:54;;;;;;;;;;;;;;;;;;5030584;28;20003;-67
2022/09/17 00:04:20;;;;;;;;;;;;;;;;;;5030769;28;19916;-67
2022/09/17 00:06:46;;;;;;;;;;;;;;;;;;5030753;28;19909;-67
2022/09/17 00:09:12;;;;;;;;;;;;;;;;;;5030435;28;19961;-67
2022/09/17 00:11:38;;;;;;;;;;;;;;;;;;5030750;28;19913;-67
2022/09/17 00:14:04;;;;;;;;;;;;;;;;;;5029309;28;20092;-67
2022/09/17 00:16:30;;;;;;;;;;;;;;;;;;5030690;28;19917;-66
2022/09/17 00:18:56;;;;;;;;;;;;;;;;;;5030847;28;19919;-67
2022/09/17 00:21:22;;;;;;;;;;;;;;;;;;5030492;28;19915;-66
2022/09/17 00:23:51;;;;;;;;;;;17.30;99.90;;;;;;5030439;28;19928;-66
2022/09/17 00:26:17;;;;;;;;;;;16.80;99.90;;;;;;5030883;28;19913;-66
2022/09/17 00:28:47;;;;;;;;;;;16.50;99.90;;;;;;5029222;28;19916;-66
2022/09/17 00:31:12;;;;;;;;;;;16.40;99.90;;;;;;5033829;28;19949;-67
2022/09/17 00:33:38;;;;;;;;;;;16.30;99.90;;;;;;5032581;28;19994;-66
2022/09/17 00:36:05;;;;;;;;;;;16.30;99.90;;;;;;5033959;28;19962;-66
2022/09/17 00:38:31;;;;;;;;;;;16.40;99.90;;;;;;5033712;28;19909;-67
2022/09/17 00:40:56;;;;;;;;;;;16.40;99.90;;;;;;5033616;28;19910;-67
2022/09/17 00:43:41;;;;;;;;;;;16.40;99.90;;;;;;5032552;28;19913;-67
2022/09/17 00:46:12;;;;;;;;;;;16.50;99.90;;;;;;5033838;28;19909;-66
2022/09/17 00:48:38;;;;;;;;;;;16.50;99.90;;;;;;5033860;28;20433;-66
2022/09/17 00:51:04;;;;;;;;;;;16.60;99.90;;;;;;5033737;28;19909;-67
2022/09/17 00:53:30;;;;;;;;;;;16.70;99.90;;;;;;5033668;28;19921;-67
2022/09/17 00:56:05;;;;;;;;;;;16.60;99.90;;;;;;5033929;28;19919;-66
2022/09/17 00:58:32;;;;;;;;;;;16.60;99.90;;;;;;5033738;28;19951;-66
2022/09/17 01:00:58;;;;;;;;;;;16.70;99.90;;;;;;5033589;28;19909;-67
2022/09/17 01:03:24;;;;;;;;;;;16.70;99.90;;;;;;5033818;28;19916;-66
2022/09/17 01:05:59;;;;;;;;;;;16.60;99.90;;;;;;5033556;28;19909;-67
2022/09/17 01:08:43;;;;;;;;;;;16.60;99.90;;;;;;5032239;28;20451;-66
2022/09/17 01:11:15;;;;;;;;;;;16.60;99.90;;;;;;5033779;28;19917;-66
2022/09/17 01:13:41;;;;;;;;;;;16.50;99.90;;;;;;5033034;28;20008;-66
2022/09/17 01:16:06;;;;;;;;;;;16.30;99.90;;;;;;5033352;28;19964;-66
2022/09/17 01:18:47;;;;;;;;;;;16.00;99.90;;;;;;5033487;28;19920;-66
2022/09/17 01:21:27;;;;;;;;;;;15.80;99.90;;;;;;5033275;28;19913;-66
2022/09/17 01:23:56;;;;;;;;;;;15.90;99.90;;;;;;5031584;28;19929;-66
2022/09/17 01:26:36;;;;;;;;;;;16.10;99.90;;;;;;5032950;28;20353;-66
2022/09/17 01:29:08;;;;;;;;;;;16.20;99.90;;;;;;5031909;28;19916;-66
2022/09/17 01:31:34;;;;;;;;;;;16.30;99.90;;;;;;5033156;28;20478;-66
2022/09/17 01:34:15;;;;;;;;;;;16.10;99.90;;;;;;5033022;28;19918;-66
2022/09/17 01:36:44;;;;;;;;;;;15.20;99.90;;;;;;5033348;28;19954;-66
2022/09/17 01:39:24;;;;;;;;;;;15.90;99.90;;;;;;5033125;28;19913;-66
2022/09/17 01:41:53;;;;;;;;;;;15.80;99.90;;;;;;5032292;28;19956;-66
2022/09/17 01:44:39;;;;;;;;;;;15.70;99.90;;;;;;5032895;28;19934;-65
2022/09/17 01:47:15;;;;;;;;;;;15.80;99.90;;;;;;5033085;28;20362;-66
2022/09/17 01:49:41;;;;;;;;;;;15.90;99.90;;;;;;5032868;28;19920;-67
2022/09/17 01:52:08;;;;;;;;;;;16.00;99.90;;;;;;5031515;28;19963;-66
2022/09/17 01:54:34;;;;;;;;;;;;;;;;;;5032769;28;19921;-66
2022/09/17 01:57:00;;;;;;;;;;;15.80;99.90;;;;;;5032682;28;20525;-66
2022/09/17 01:59:29;;;;;;;;;;;15.70;99.90;;;;;;5032758;28;19958;-67
2022/09/17 02:02:15;;;;;;;;;;;15.70;99.90;;;;;;5032647;28;19910;-67
2022/09/17 02:04:45;;;;;;;;;;;15.80;99.90;;;;;;5032421;28;19913;-67
2022/09/17 02:07:14;;;;;;;;;;;15.80;99.90;;;;;;5032580;28;19962;-65
2022/09/17 02:09:44;;;;;;;;;;;15.80;99.90;;;;;;5032548;28;19909;-67
2022/09/17 02:12:13;;;;;;;;;;;15.20;99.90;;;;;;5032510;28;20061;-67
2022/09/17 02:14:39;;;;;;;;;;;;;;;;;;5030819;28;19971;-64
2022/09/17 02:17:26;;;;;;;;;;;14.90;99.90;;;;;;5032456;28;19910;-67
2022/09/17 02:19:52;;;;;;;;;;;15.10;99.90;;;;;;5031151;28;20357;-67
2022/09/17 02:22:24;;;;;;;;;;;15.20;99.90;;;;;;5032372;28;19913;-65
2022/09/17 02:25:01;;;;;;;;;;;15.20;99.90;;;;;;5032396;28;19922;-64
2022/09/17 02:27:32;;;;;;;;;;;15.10;99.90;;;;;;5032349;28;19909;-67
2022/09/17 02:29:58;;;;;;;;;;;;;;;;;;5032247;28;20004;-65
2022/09/17 02:32:24;;;;;;;;;;;;;;;;;;5032209;28;19913;-65
2022/09/17 02:34:50;;;;;;;;;;;;;;;;;;5030780;28;19924;-65
2022/09/17 02:37:16;;;;;;;;;;;;;;;;;;5032166;28;19916;-65
2022/09/17 02:39:42;;;;;;;;;;;14.80;99.90;;;;;;5032162;28;19916;-65
2022/09/17 02:42:11;;;;;;;;;;;14.90;99.90;;;;;;5031766;28;20000;-67
2022/09/17 02:44:41;;;;;;;;;;;14.90;99.90;;;;;;5031994;28;19909;-65
2022/09/17 02:47:16;;;;;;;;;;;15.00;99.90;;;;;;5032300;28;19916;-65
2022/09/17 02:49:42;;;;;;;;;;;;;;;;;;5030663;28;20368;-65
2022/09/17 02:52:31;;;;;;;;;;;15.00;99.90;;;;;;5032022;28;20298;-65
2022/09/17 02:55:05;;;;;;;;;;;15.10;99.90;;;;;;5033499;28;19924;-65
2022/09/17 02:57:46;;;;;;;;;;;15.00;99.90;;;;;;5031902;28;19909;-67
2022/09/17 03:00:14;;;;;;;;;;;15.00;99.90;;;;;;5031806;28;19909;-65
2022/09/17 03:02:42;;;;;;;;;;;15.00;99.90;;;;;;5030444;28;19920;-65
2022/09/17 03:05:08;;;;;;;;;;;15.00;99.90;;;;;;5031683;28;19913;-65
2022/09/17 03:07:35;;;;;;;;;;;15.10;99.90;;;;;;5031695;28;19916;-65
2022/09/17 03:10:01;;;;;;;;;;;15.00;99.90;;;;;;5031667;28;19972;-65
2022/09/17 03:12:26;;;;;;;;;;;15.10;99.90;;;;;;5030313;28;19949;-65
2022/09/17 03:14:52;;;;;;;;;;;15.10;99.90;;;;;;5031485;28;20012;-65
2022/09/17 03:17:18;;;;;;;;;;;15.10;99.90;;;;;;5031473;28;19916;-65
2022/09/17 03:19:53;;;;;;;;;;;15.10;99.90;;;;;;5031186;28;19916;-65
2022/09/17 03:22:19;;;;;;;;;;;15.10;99.90;;;;;;5031490;28;19935;-66
2022/09/17 03:24:44;;;;;;;;;;;15.00;99.90;;;;;;5030922;28;19921;-66
2022/09/17 03:27:10;;;;;;;;;;;15.00;99.90;;;;;;5031327;28;20289;-66
2022/09/17 03:29:36;;;;;;;;;;;;;;;;;;5031038;28;19917;-65
2022/09/17 03:32:02;;;;;;;;;;;14.90;99.90;;;;;;5031285;28;20363;-65
2022/09/17 03:34:27;;;;;;;;;;;15.00;99.90;;;;;;5031146;28;19963;-65
2022/09/17 03:36:53;;;;;;;;;;;14.90;99.90;;;;;;5031212;28;19913;-65
2022/09/17 03:39:19;;;;;;;;;;;14.90;99.90;;;;;;5031236;28;20341;-65
2022/09/17 03:41:44;;;;;;;;;;;14.90;99.90;;;;;;5031183;28;19913;-67
2022/09/17 03:44:10;;;;;;;;;;;14.90;99.90;;;;;;5031127;28;19917;-65
2022/09/17 03:46:36;;;;;;;;;;;14.80;99.90;;;;;;5029718;28;19909;-67
2022/09/17 03:49:02;;;;;;;;;;;14.80;99.90;;;;;;5029782;28;19971;-65
2022/09/17 03:51:27;;;;;;;;;;;14.80;99.90;;;;;;5030972;28;19910;-67
2022/09/17 03:53:53;;;;;;;;;;;14.80;99.90;;;;;;5029589;28;19921;-67
2022/09/17 03:56:19;;;;;;;;;;;;;;;;;;5030954;28;19916;-67
2022/09/17 03:58:45;;;;;;;;;;;;;;;;;;5031007;28;20258;-67
2022/09/17 04:01:14;;;;;;;;;;;14.80;99.90;;;;;;5031155;28;19913;-67
2022/09/17 04:03:40;;;;;;;;;;;;;;;;;;5030767;28;20399;-66
2022/09/17 04:06:06;;;;;;;;;;;;;;;;;;5030197;28;20330;-66
2022/09/17 04:08:32;;;;;;;;;;;;;;;;;;5029561;28;19916;-66
2022/09/17 04:10:58;;;;;;;;;;;;;;;;;;5030744;28;20303;-64
2022/09/17 04:13:24;;;;;;;;;;;;;;;;;;5030864;28;19917;-64
2022/09/17 04:15:50;;;;;;;;;;;;;;;;;;5030666;28;20393;-65
2022/09/17 04:18:16;;;;;;;;;;;14.60;99.90;;;;;;5030714;28;19913;-65
2022/09/17 04:20:42;;;;;;;;;;;14.50;99.90;;;;;;5030596;28;19909;-65
2022/09/17 04:23:09;;;;;;;;;;;14.50;99.90;;;;;;5030472;28;19925;-65
2022/09/17 04:25:37;;;;;;;;;;;14.50;99.90;;;;;;5029561;28;20221;-65
2022/09/17 04:28:02;;;;;;;;;;;14.50;99.90;;;;;;5030586;28;19962;-67
2022/09/17 04:30:28;;;;;;;;;;;14.50;99.90;;;;;;5030481;28;19913;-65
2022/09/17 04:32:54;;;;;;;;;;;14.50;99.90;;;;;;5030388;28;20353;-65
2022/09/17 04:35:20;;;;;;;;;;;14.50;99.90;;;;;;5030428;28;19917;-65
2022/09/17 04:37:52;;;;;;;;;;;14.50;99.90;;;;;;5030409;28;19935;-65
2022/09/17 04:40:18;;;;;;;;;;;14.50;99.90;;;;;;5028851;28;19957;-65
2022/09/17 04:42:44;;;;;;;;;;;;;;;;;;5030113;28;19940;-65
2022/09/17 04:45:10;;;;;;;;;;;;;;;;;;5029081;28;19915;-64
2022/09/17 04:47:36;;;;;;;;;;;;;;;;;;5030585;28;19962;-65
2022/09/17 04:50:02;;;;;;;;;;;;;;;;;;5029006;28;19924;-65
2022/09/17 04:52:28;;;;;;;;;;;;;;;;;;5030278;28;19941;-65
2022/09/17 04:54:54;;;;;;;;;;;;;;;;;;5029835;28;19917;-64
2022/09/17 04:57:22;;;;;;;;;;;;;;;;;;5030219;28;19920;-65
2022/09/17 04:59:48;;;;;;;;;;;;;;;;;;5030251;28;20272;-65
2022/09/17 05:02:14;;;;;;;;;;;;;;;;;;5028901;28;19917;-64
2022/09/17 05:04:40;;;;;;;;;;;;;;;;;;5028808;28;19923;-65
2022/09/17 05:07:06;;;;;;;;;;;;;;;;;;5029772;28;20325;-64
2022/09/17 05:09:32;;;;;;;;;;;;;;;;;;5030096;28;20011;-65
2022/09/17 05:11:58;;;;;;;;;;;;;;;;;;5030000;28;19948;-65
2022/09/17 05:14:24;;;;;;;;;;;;;;;;;;5028634;28;19947;-65
2022/09/17 05:16:50;;;;;;;;;;;;;;;;;;5031249;28;20424;-65
2022/09/17 05:19:16;;;;;;;;;;;;;;;;;;5032099;28;19921;-65
2022/09/17 05:21:42;;;;;;;;;;;;;;;;;;5033311;28;20012;-65
2022/09/17 05:24:08;;;;;;;;;;;;;;;;;;5032939;28;19966;-65
2022/09/17 05:26:34;;;;;;;;;;;;;;;;;;5033250;28;19921;-64
2022/09/17 05:29:00;;;;;;;;;;;;;;;;;;5033516;28;19913;-64
2022/09/17 05:31:26;;;;;;;;;;;;;;;;;;5031790;28;20032;-65
2022/09/17 05:33:52;;;;;;;;;;;;;;;;;;5031719;28;20020;-65
2022/09/17 05:36:18;;;;;;;;;;;;;;;;;;5033102;28;19919;-65
2022/09/17 05:38:44;;;;;;;;;;;;;;;;;;5032772;28;19954;-65
2022/09/17 05:41:10;;;;;;;;;;;;;;;;;;5033051;28;19909;-67
2022/09/17 05:43:36;;;;;;;;;;;;;;;;;;5031675;28;20393;-64
2022/09/17 05:46:02;;;;;;;;;;;;;;;;;;5032594;28;19917;-65
2022/09/17 05:48:28;;;;;;;;;;;;;;;;;;5032590;28;19913;-65
2022/09/17 05:50:54;;;;;;;;;;;;;;;;;;5032906;28;19909;-65
2022/09/17 05:53:20;;;;;;;;;;;;;;;;;;5032692;28;19913;-64
2022/09/17 05:55:46;;;;;;;;;;;;;;;;;;5032780;28;20285;-64
2022/09/17 05:58:12;;;;;;;;;;;;;;;;;;5032767;28;19916;-65
2022/09/17 06:00:38;;;;;;;;;;;;;;;;;;5032765;28;19920;-63
2022/09/17 06:03:04;;;;;;;;;;;;;;;;;;5032716;28;20004;-63
2022/09/17 06:05:30;;;;;;;;;;;;;;;;;;5032335;28;20008;-63
2022/09/17 06:07:56;;;;;;;;;;;;;;;;;;5031343;28;20007;-63
2022/09/17 06:10:22;;;;;;;;;;;;;;;;;;5032523;28;20321;-63
2022/09/17 06:12:48;;;;;;;;;;;;;;;;;;5032520;28;19970;-63
2022/09/17 06:15:14;;;;;;;;;;;;;;;;;;5032416;28;19964;-65
2022/09/17 06:17:41;;;;;;;;;;;;;;;;;;5032461;28;19924;-63
2022/09/17 06:20:06;;;;;;;;;;;;;;;;;;5032454;28;20412;-64
2022/09/17 06:22:32;;;;;;;;;;;;;;;;;;5031921;28;20000;-65
2022/09/17 06:25:01;;;;;;;;;;;;;;;;;;5032375;28;19909;-63
2022/09/17 06:27:27;;;;;;;;;;;;;;;;;;5032089;28;19952;-64
2022/09/17 06:29:52;;;;;;;;;;;;;;;;;;5032315;28;19916;-64
2022/09/17 06:32:18;;;;;;;;;;;;;;;;;;5032223;28;19909;-63
2022/09/17 06:34:44;;;;;;;;;;;;;;;;;;5032177;28;19938;-63
2022/09/17 06:37:10;;;;;;;;;;;;;;;;;;5032161;28;19982;-64
2022/09/17 06:39:36;;;;;;;;;;;;;;;;;;5032105;28;19917;-64
2022/09/17 06:42:02;;;;;;;;;;;;;;;;;;5032024;28;20298;-64
2022/09/17 06:44:28;;;;;;;;;;;;;;;;;;5037236;27;19916;-64
2022/09/17 06:46:54;;;;;;;;;;;;;;;;;;5049888;28;19909;-63
2022/09/17 06:49:21;;;;;;;;;;;;;;;;;;5049911;28;19909;-63
2022/09/17 06:51:47;;;;;;;;;;;;;;;;;;5051156;27;19909;-63
2022/09/17 06:54:13;;;;;;;;;;;;;;;;;;5051338;28;20417;-63
2022/09/17 06:56:38;;;;;;;;;;;;;;;;;;5051226;27;20380;-64
2022/09/17 06:59:04;;;;;;;;;;;;;;;;;;5050835;27;20336;-64
2022/09/17 07:01:31;;;;;;;;;;;;;;;;;;5051595;27;19957;-64
2022/09/17 07:03:57;;;;;;;;;;;;;;;;;;5050687;27;20261;-63
2022/09/17 07:06:23;;;;;;;;;;;;;;;;;;5050698;27;19936;-64
2022/09/17 07:08:49;;;;;;;;;;;;;;;;;;5050779;27;19909;-63
2022/09/17 07:11:15;;;;;;;;;;;;;;;;;;5051318;28;19909;-63
2022/09/17 07:13:41;;;;;;;;;;;;;;;;;;5049602;28;19920;-64
2022/09/17 07:16:07;;;;;;;;;;;;;;;;;;5049471;28;19912;-63
2022/09/17 07:18:33;;;;;;;;;;;;;;;;;;5050644;27;20411;-63
2022/09/17 07:20:59;;;;;;;;;;;;;;;;;;5051018;28;20050;-64
2022/09/17 07:23:25;;;;;;;;;;;;;;;;;;5050581;28;19931;-63
2022/09/17 07:25:51;;;;;;;;;;;;;;;;;;5050381;27;19916;-63
2022/09/17 07:28:17;;;;;;;;;;;;;;;;;;5051048;28;19908;-63
2022/09/17 07:30:43;;;;;;;;;;;;;;;;;;5050500;27;19966;-64
2022/09/17 07:33:09;;;;;;;;;;;;;;;;;;5049361;28;19908;-63
2022/09/17 07:35:35;;;;;;;;;;;;;;;;;;5049096;28;19917;-63
2022/09/17 07:38:01;;;;;;;;;;;;;;;;;;5050483;27;19957;-64
2022/09/17 07:40:27;;;;;;;;;;;;;;;;;;5049661;28;19953;-64
2022/09/17 07:42:53;;;;;;;;;;;;;;;;;;5048848;28;19909;-63
2022/09/17 07:45:18;;;;;;;;;;;14.40;99.90;;;;;;5050411;27;19916;-65
2022/09/17 07:47:44;;;;;;;;;;;14.80;99.90;;;;;;5050260;27;19909;-65
2022/09/17 07:50:10;;;;;;;;;;;14.90;99.90;;;;;;5050679;28;19954;-65
2022/09/17 07:52:36;;;;;;;;;;;15.00;99.90;;;;;;5050471;28;20428;-67
2022/09/17 07:55:01;;;;;;;;;;;15.00;99.90;;;;;;5048942;28;20014;-64
2022/09/17 07:57:27;;;;;;;;;;;14.80;99.90;;;;;;5049057;28;19963;-65
2022/09/17 07:59:52;;;;;;;;;;;15.00;99.90;;;;;;5050595;28;20246;-65
2022/09/17 08:02:20;;;;;;;;;;;15.10;99.90;;;;;;5050380;28;19909;-65
2022/09/17 08:04:45;;;;;;;;;;;15.20;99.90;;;;;;5048954;28;20094;-66
2022/09/17 08:07:12;;;;;;;;;;;;;;;;;;5050088;28;20050;-66
2022/09/17 08:09:39;;;;;;;;;;;;;;;;;;5050573;28;19909;-66
2022/09/17 08:12:06;;;;;;;;;;;;;;;;;;5049339;28;20415;-66
2022/09/17 08:14:32;;;;;;;;;;;15.40;99.90;;;;;;5050531;28;20008;-65
2022/09/17 08:16:57;;;;;;;;;;;15.70;99.90;;;;;;5050404;28;19952;-67
2022/09/17 08:19:24;;;;;;;;;;;15.70;99.90;;;;;;5049341;28;19917;-67
2022/09/17 08:21:50;;;;;;;;;;;15.70;99.90;;;;;;5049225;28;19999;-66
2022/09/17 08:24:15;;;;;;;;;;;15.70;99.90;;;;;;5047602;27;20017;-72
2022/09/17 08:26:41;;;;;;;;;;;15.60;99.90;;;;;;5062810;27;19936;-69
2022/09/17 08:29:06;;;;;;;;;;;15.50;99.90;;;;;;5029241;28;19916;-66
2022/09/17 08:31:32;;;;;;;;;;;15.50;99.90;;;;;;5030328;28;19917;-65
2022/09/17 08:33:58;;;;;;;;;;;15.60;99.90;;;;;;5030124;28;19920;-68
2022/09/17 08:36:27;;;;;;;;;;;15.50;99.90;;;;;;5030172;28;19924;-66
2022/09/17 08:38:53;;;;;;;;;;;15.40;99.90;;;;;;5030214;28;19913;-65
2022/09/17 08:41:25;;;;;;;;;;;15.40;99.90;;;;;;5029997;28;20653;-64
2022/09/17 08:43:53;;;;;;;;;;;15.40;99.90;;;;;;5049134;27;20275;-64
2022/09/17 08:46:19;;;;;;;;;;;15.60;99.90;;;;;;5029437;28;19913;-64
2022/09/17 08:48:57;;;;;;;;;;;15.60;99.90;;;;;;5028347;28;20278;-65
2022/09/17 08:51:33;;;;;;;;;;;15.60;99.90;;;;;;5032340;28;19962;-63
2022/09/17 08:54:02;;;;;;;;;;;15.60;99.90;;;;;;5033210;28;20349;-65
2022/09/17 08:56:30;;;;;;;;;;;15.80;99.90;;;;;;5032828;28;19913;-66
2022/09/17 08:59:05;;;;;;;;;;;16.30;99.90;;;;;;5033015;28;19928;-63
2022/09/17 09:01:43;;;;;;;;;;;16.30;99.90;;;;;;5032801;28;20383;-66
2022/09/17 09:04:08;;;;;;;;;;;16.20;99.90;;;;;;5033037;28;19948;-66
2022/09/17 09:06:36;;;;;;;;;;;16.10;99.90;;;;;;5032847;28;19956;-65
2022/09/17 09:09:10;;;;;;;;;;;16.00;99.90;;;;;;5032426;28;19913;-63
2022/09/17 09:11:35;;;;;;;;;;;16.00;99.90;;;;;;5031812;28;20436;-63
2022/09/17 09:14:19;;;;;;;;;;;16.10;99.90;;;;;;5031053;28;20016;-64
2022/09/17 09:16:45;;;;;;;;;;;16.20;99.90;;;;;;5033084;28;19921;-63
2022/09/17 09:19:21;;;;;;;;;;;16.20;99.90;;;;;;5033052;28;19917;-63
2022/09/17 09:21:55;;;;;;;;;;;16.20;99.90;;;;;;5033138;28;19920;-65
2022/09/17 09:24:25;;;;;;;;;;;16.30;99.90;;;;;;5032428;28;20361;-64
2022/09/17 09:27:04;;;;;;;;;;;16.30;99.90;;;;;;5032796;28;20231;-64
2022/09/17 09:29:29;;;;;;;;;;;16.20;99.90;;;;;;5047037;28;19965;-63
2022/09/17 09:32:14;;;;;;;;;;;16.10;99.90;;;;;;5053063;28;19909;-64
2022/09/17 09:34:39;;;;;;;;;;;16.20;99.90;;;;;;5052704;28;20019;-63
2022/09/17 09:37:20;;;;;;;;;;;16.20;99.90;;;;;;5052698;28;19960;-64
2022/09/17 09:39:48;;;;;;;;;;;16.40;99.90;;;;;;5052479;28;20024;-64
2022/09/17 09:42:32;;;;;;;;;;;16.50;99.90;;;;;;5052439;28;19965;-64
2022/09/17 09:45:33;;;;;;;;;;;16.50;99.90;;;;;;5051488;28;19909;-64
2022/09/17 09:48:31;;;;;;;;;;;16.50;99.90;;;;;;5071719;28;20022;-64
2022/09/17 09:51:06;;;;;;;;;;;16.70;99.90;;;;;;5010514;28;20004;-65
2022/09/17 09:53:52;;;;;;;;;;;16.80;99.90;;;;;;5010327;28;19921;-65
2022/09/17 09:56:38;;;;;;;;;;;16.90;99.90;;;;;;5010299;28;19918;-64
2022/09/17 09:59:07;;;;;;;;;;;17.00;99.90;;;;;;5002247;28;19913;-65
2022/09/17 10:01:35;;;;;;;;;;;17.00;99.90;;;;;;4993841;28;19910;-64
2022/09/17 10:04:00;;;;;;;;;;;17.00;99.90;;;;;;5009496;28;19943;-64
2022/09/17 10:06:29;;;;;;;;;;;17.00;99.90;;;;;;5010193;28;20405;-64
2022/09/17 10:08:54;;;;;;;;;;;16.90;99.90;;;;;;5010221;28;20284;-64
2022/09/17 10:11:22;;;;;;;;;;;16.80;99.90;;;;;;5010169;28;19951;-64
2022/09/17 10:13:47;;;;;;;;;;;16.70;99.90;;;;;;5009991;28;19925;-63
2022/09/17 10:16:16;;;;;;;;;;;16.70;99.90;;;;;;5010071;28;19917;-66
2022/09/17 10:18:42;;;;;;;;;;;17.00;99.90;;;;;;5010114;28;20036;-64
2022/09/17 10:21:18;;;;;;;;;;;17.80;99.90;;;;;;5010162;28;20008;-68
2022/09/17 10:23:44;;;;;;;;;;;18.00;99.90;;;;;;5009892;28;19932;-68
2022/09/17 10:26:21;;;;;;;;;;;18.70;99.90;;;;;;5008069;28;20379;-66
2022/09/17 10:28:51;;;;;;;;;;;18.80;99.90;;;;;;5051753;28;20448;-68
2022/09/17 10:31:17;;;;;;;;;;;18.80;99.90;;;;;;5052175;28;19913;-66
2022/09/17 10:33:55;;;;;;;;;;;18.80;99.90;;;;;;5058488;27;20300;-69
2022/09/17 10:36:41;;;;;;;;;;;19.00;99.90;;;;;;5031566;28;19969;-65
2022/09/17 10:39:28;;;;;;;;;;;18.60;99.90;;;;;;5031119;28;19913;-65
2022/09/17 10:41:55;;;;;;;;;;;18.30;99.90;;;;;;5031710;28;19921;-65
2022/09/17 10:44:21;;;;;;;;;;;18.10;99.90;;;;;;5031800;28;20354;-65
2022/09/17 10:46:47;;;;;;;;;;;17.80;99.90;;;;;;5030471;28;20258;-65
2022/09/17 10:49:32;;;;;;;;;;;17.90;99.90;;;;;;5030420;28;19924;-63
2022/09/17 10:52:16;;;;;;;;;;;17.50;99.90;;;;;;5033066;28;19919;-64
2022/09/17 10:55:00;;;;;;;;;;;17.60;99.90;;;;;;5091863;27;19913;-65
2022/09/17 10:57:29;;;;;;;;;;;17.70;99.90;;;;;;5032293;27;19913;-69
2022/09/17 11:00:01;;;;;;;;;;;17.60;99.90;;;;;;5043480;27;19910;-70
2022/09/17 11:02:41;;;;;;;;;;;17.30;99.90;;;;;;5031717;28;19909;-70
2022/09/17 11:05:13;;;;;;;;;;;17.10;99.90;;;;;;5029873;28;20023;-69
2022/09/17 11:07:43;;;;;;;;;;;16.90;99.90;;;;;;5029897;28;20003;-63
2022/09/17 11:10:19;;;;;;;;;;;16.80;99.90;;;;;;5049417;27;20276;-63
2022/09/17 11:12:54;;;;;;;;;;;16.80;99.90;;;;;;5049912;28;19909;-64
2022/09/17 11:15:35;;;;;;;;;;;16.70;99.90;;;;;;5048547;27;19917;-67
2022/09/17 11:18:07;;;;;;;;;;;16.60;99.90;;;;;;5102883;27;20405;-66
2022/09/17 11:20:51;;;;;;;;;;;16.50;99.90;;;;;;5156042;27;19914;-65
2022/09/17 11:23:26;;;;;;;;;;;16.50;99.90;;;;;;5154118;27;20331;-68
2022/09/17 11:26:10;;;;;;;;;;;16.40;99.90;;;;;;5102424;27;19958;-64
2022/09/17 11:28:57;;;;;;;;;;;16.40;99.90;;;;;;5030864;28;19913;-61
2022/09/17 11:31:23;;;;;;;;;;;16.40;99.90;;;;;;5029645;28;19914;-63
2022/09/17 11:34:04;;;;;;;;;;;16.50;99.90;;;;;;5030647;28;19913;-63
2022/09/17 11:36:34;;;;;;;;;;;16.50;99.90;;;;;;5030865;28;19966;-63
2022/09/17 11:39:08;;;;;;;;;;;16.50;99.90;;;;;;5030786;28;19955;-64
2022/09/17 11:41:40;;;;;;;;;;;16.50;99.90;;;;;;5030463;28;19913;-62
2022/09/17 11:44:15;;;;;;;;;;;16.40;99.90;;;;;;5030840;28;19917;-63
2022/09/17 11:46:45;;;;;;;;;;;16.20;99.90;;;;;;5040030;27;20017;-64
2022/09/17 11:49:15;;;;;;;;;;;16.20;99.90;;;;;;5037798;27;19920;-64
2022/09/17 11:51:46;;;;;;;;;;;16.10;99.90;;;;;;5040789;27;19921;-64
2022/09/17 11:54:27;;;;;;;;;;;16.00;99.90;;;;;;5042114;27;19921;-65
2022/09/17 11:56:56;;;;;;;;;;;15.80;99.90;;;;;;5039839;28;20000;-66
2022/09/17 11:59:31;;;;;;;;;;;15.70;99.90;;;;;;5038681;27;20325;-67
2022/09/17 12:02:03;;;;;;;;;;;15.80;99.90;;;;;;5041232;28;19913;-64
2022/09/17 12:04:31;;;;;;;;;;;15.80;99.90;;;;;;5050324;28;20003;-66
2022/09/17 12:07:09;;;;;;;;;;;15.80;99.90;;;;;;5035828;28;19909;-66
2022/09/17 12:09:36;;;;;;;;;;;15.90;99.90;;;;;;5029312;28;19909;-63
2022/09/17 12:12:10;;;;;;;;;;;15.90;99.90;;;;;;5030228;28;19914;-63
2022/09/17 12:14:44;;;;;;;;;;;15.90;99.90;;;;;;5030719;28;19913;-64
2022/09/17 12:17:13;;;;;;;;;;;15.90;99.90;;;;;;5029501;28;19913;-64
2022/09/17 12:19:49;;;;;;;;;;;15.80;99.90;;;;;;5030596;28;19913;-63
2022/09/17 12:22:29;;;;;;;;;;;15.80;99.90;;;;;;5030771;28;19909;-63
2022/09/17 12:24:55;;;;;;;;;;;15.90;99.90;;;;;;5030334;28;19921;-64
2022/09/17 12:27:39;;;;;;;;;;;15.90;99.90;;;;;;5030870;28;20363;-64
2022/09/17 12:30:09;;;;;;;;;;;15.80;99.90;;;;;;5030407;28;20012;-62
2022/09/17 12:32:42;;;;;;;;;;;15.80;99.90;;;;;;5030386;28;19930;-63
2022/09/17 12:35:33;;;;;;;;;;;15.70;99.90;;;;;;5028974;28;20000;-66
2022/09/17 12:38:08;;;;;;;;;;;15.80;99.90;;;;;;5030580;28;19917;-63
2022/09/17 12:40:37;;;;;;;;;;;15.90;99.90;;;;;;5030311;28;20019;-63
2022/09/17 12:43:04;;;;;;;;;;;15.80;99.90;;;;;;5030099;28;19909;-62
2022/09/17 12:45:39;;;;;;;;;;;15.80;99.90;;;;;;5030366;28;19966;-63
2022/09/17 12:48:23;;;;;;;;;;;15.90;99.90;;;;;;5030665;28;19919;-63
2022/09/17 12:50:52;;;;;;;;;;;15.90;99.90;;;;;;5075735;27;20359;-64
2022/09/17 12:53:20;;;;;;;;;;;16.00;99.90;;;;;;5041296;27;19917;-63
2022/09/17 12:56:06;;;;;;;;;;;16.00;99.90;;;;;;5082189;27;20098;-64
2022/09/17 12:58:32;;;;;;;;;;;15.90;99.90;;;;;;5049547;27;19984;-63
2022/09/17 13:01:19;;;;;;;;;;;16.00;99.90;;;;;;5050072;28;20337;-64
2022/09/17 13:03:48;;;;;;;;;;;16.00;99.90;;;;;;5049614;28;20000;-65
2022/09/17 13:06:14;;;;;;;;;;;15.90;99.90;;;;;;5049630;28;19912;-64
2022/09/17 13:08:58;;;;;;;;;;;15.90;99.90;;;;;;5049667;28;19959;-66
2022/09/17 13:11:44;;;;;;;;;;;15.90;99.90;;;;;;5049678;28;20481;-65
2022/09/17 13:14:09;;;;;;;;;;;15.90;99.90;;;;;;5048390;28;19913;-64
2022/09/17 13:16:35;;;;;;;;;;;16.00;99.90;;;;;;5049242;27;19913;-64
2022/09/17 13:19:24;;;;;;;;;;;15.90;99.90;;;;;;5048314;28;19909;-64
2022/09/17 13:21:59;;;;;;;7.70;6.65;;;15.90;99.90;;;;;;5048381;28;20238;-63
2022/09/17 13:24:29;;;;;;;10.30;6.20;;;15.80;99.90;;;;;;5049119;28;20114;-63
2022/09/17 13:26:57;;;;;;;12.25;7.40;;;15.80;99.90;;;;;;5049076;28;20051;-63
2022/09/17 13:29:44;;;;;;;6.80;6.10;;;15.60;99.90;;;;;;5048825;28;20033;-63
2022/09/17 13:32:35;;;;;;;11.40;7.55;;;15.50;99.90;;;;;;5047694;28;20025;-65
2022/09/17 13:35:15;;;;;;;10.88;8.10;;;15.60;99.90;;;;;;5048707;27;20060;-63
2022/09/17 13:37:51;;;;;;;7.63;6.82;;;15.70;99.90;;;;;;5049575;27;20037;-63
2022/09/17 13:40:37;;;;;;;8.90;6.75;;;15.50;99.90;;;;;;5052238;28;20029;-65
2022/09/17 13:43:02;;;;;;;11.18;7.05;;;15.50;99.90;;;;;;5052100;28;20036;-65
2022/09/17 13:45:29;;;;;;;9.98;7.25;;;15.50;99.90;;;;;;5050623;28;20405;-63
2022/09/17 13:48:01;;;;;;;8.60;7.40;;;15.60;99.90;;;;;;5050903;28;20447;-63
2022/09/17 13:50:42;;;;;;;8.75;6.82;;;15.70;99.90;;;;;;5051806;28;20029;-63
2022/09/17 13:53:20;;;;;;;10.77;6.25;;;15.50;99.90;;;;;;5052177;28;20103;-63
2022/09/17 13:55:49;;;;;;;7.60;6.57;;;15.40;99.90;;;;;;5051941;28;20057;-66
2022/09/17 13:58:18;;;;;;;7.30;5.90;;;15.30;99.90;;;;;;5051966;28;20021;-63
2022/09/17 14:00:51;;;;;;;6.60;5.13;;;15.20;99.90;;;;;;5051567;27;20029;-63
2022/09/17 14:03:43;;;;;;;6.10;5.50;;;15.20;99.90;;;;;;5051950;28;20025;-64
2022/09/17 14:06:17;;;;;;;8.52;6.65;;;15.00;99.90;;;;;;5051539;27;20021;-62
2022/09/17 14:08:43;;;;;;;9.60;6.22;;;14.90;99.90;;;;;;5051847;28;20021;-65
2022/09/17 14:11:25;;;;;;;6.45;5.65;;;14.90;99.90;;;;;;5051758;28;20517;-64
2022/09/17 14:14:09;;;;;;;8.35;6.90;;;15.00;99.90;;;;;;5051387;27;20121;-62
2022/09/17 14:16:49;;;;;;;9.77;6.18;;;15.00;99.90;;;;;;5051570;28;20029;-64
2022/09/17 14:19:15;;;;;;;6.72;5.95;;;15.00;99.90;;;;;;5051592;27;20028;-64
2022/09/17 14:22:01;;;;;;;7.43;5.47;;;;;;;;;;5051054;27;20087;-65
2022/09/17 14:24:43;;;;;;;7.78;4.00;;;;;;;;;;5051229;28;20048;-62
2022/09/17 14:27:21;;;;;;;6.40;3.80;;;;;;;;;;5051521;28;20017;-63
2022/09/17 14:29:50;;;;;;;5.10;3.25;;;;;;;;;;5051091;27;20496;-62
2022/09/17 14:32:32;;;;;;;6.18;5.00;;;;;;;;;;5051370;28;20414;-63
2022/09/17 14:34:58;;;;;;;;;;;;;;;;;;5051750;27;20065;-63
2022/09/17 14:37:25;;;;;;;9.02;5.63;;;;;;;;;;5050672;27;20340;-64
2022/09/17 14:39:51;;;;;;;7.90;5.38;;;;;;;;;;5051387;27;20372;-64
2022/09/17 14:42:23;;;;;;;6.70;4.45;;;;;;;;;;5051302;28;20021;-65
2022/09/17 14:45:00;;;;;;;4.88;4.15;;;;;;;;;;5050039;28;20025;-65
2022/09/17 14:47:26;;;;;;;5.38;4.70;;;;;;;;;;5050616;28;20107;-65
2022/09/17 14:49:53;;;;;;;7.95;6.30;;;;;;;;;;5050990;28;20025;-64
2022/09/17 14:52:29;;;;;;;8.95;6.15;;;;;;;;;;5051121;28;20033;-65
2022/09/17 14:55:14;;;;;;;5.75;5.15;;;;;;;;;;5049653;28;20025;-65
2022/09/17 14:57:40;;;;;;;5.32;4.82;;;;;;;;;;5050206;27;20025;-64
2022/09/17 15:00:15;;;;;;;6.57;5.13;;;;;;;;;;5050955;28;20056;-64
2022/09/17 15:02:42;;;;;;;5.40;4.88;;;;;;;;;;5049389;28;20062;-64
2022/09/17 15:05:26;;;;;;;7.10;5.80;;;;;;;;;;5050968;28;20028;-64
2022/09/17 15:08:04;;;;;;;6.00;4.80;;;;;;;;;;5050858;28;20014;-64